This is the latest recevied weather packets stored in our database for station/object IONIA-WX. If no packets are shown the sender has not sent any weather packets the latest 1 day(s).
| Time | Temp. | Humidity | Pressure | Rain* | Wind** | Luminosity | Snow |
|---|---|---|---|---|---|---|---|
| 1778031918 | 7.78° C | 58% | 980 hPa | 0 mm | 2.68 m/s, 287° | - | - |
| 1778031038 | 7.78° C | 58% | 980 hPa | 0 mm | 2.24 m/s, 288° | - | - |
| 1778030128 | 7.78° C | 58% | 980 hPa | 0 mm | 2.24 m/s, 281° | - | - |
| 1778029241 | 7.78° C | 58% | 980 hPa | 0 mm | 2.24 m/s, 277° | - | - |
| 1778028318 | 9.44° C | 47% | 979.7 hPa | 0 mm | 2.24 m/s, 282° | - | - |
| 1778027432 | 9.44° C | 41% | 980.2 hPa | 0 mm | 2.24 m/s, 284° | - | - |
| 1778026518 | 10° C | 41% | 980.2 hPa | 0 mm | 2.68 m/s, 289° | - | - |
| 1778025644 | 10.56° C | 41% | 980.2 hPa | 0 mm | 3.58 m/s, 291° | - | - |
| 1778024718 | 10.56° C | 36% | 979.7 hPa | 0 mm | 4.02 m/s, 288° | - | - |
| 1778023834 | 11.11° C | 36% | 979.9 hPa | 0 mm | 4.47 m/s, 288° | - | - |
| 1778022918 | 11.11° C | 36% | 979.9 hPa | 0 mm | 4.92 m/s, 288° | - | - |
| 1778022040 | 11.11° C | 36% | 979.9 hPa | 0 mm | 4.92 m/s, 283° | - | - |
| 1778021118 | 11.67° C | 33% | 979.8 hPa | 0 mm | 5.36 m/s, 282° | - | - |
| 1778020236 | 11.67° C | 33% | 980 hPa | 0 mm | 5.81 m/s, 278° | - | - |
| 1778019317 | 12.22° C | 33% | 980 hPa | 0 mm | 5.81 m/s, 275° | - | - |
| 1778018444 | 12.22° C | 33% | 980 hPa | 0 mm | 6.26 m/s, 274° | - | - |
| 1778017517 | 12.78° C | 34% | 979.5 hPa | 0 mm | 6.71 m/s, 273° | - | - |
| 1778016637 | 12.22° C | 33% | 979.1 hPa | 0 mm | 6.71 m/s, 273° | - | - |
| 1778015717 | 12.78° C | 33% | 979.1 hPa | 0 mm | 6.71 m/s, 272° | - | - |
| 1778014843 | 12.78° C | 33% | 979.1 hPa | 0 mm | 6.71 m/s, 272° | - | - |
| 1778013917 | 12.78° C | 33% | 979.6 hPa | 0 mm | 7.15 m/s, 268° | - | - |
| 1778013038 | 12.78° C | 34% | 978.9 hPa | 0 mm | 7.15 m/s, 267° | - | - |
| 1778012117 | 12.78° C | 34% | 978.9 hPa | 0 mm | 7.15 m/s, 264° | - | - |
| 1778011242 | 12.78° C | 34% | 978.9 hPa | 0 mm | 7.15 m/s, 260° | - | - |
| 1778010317 | 12.78° C | 35% | 978.6 hPa | 0 mm | 7.15 m/s, 261° | - | - |
* Rain latest hour (hover to see other rain measurements)
** Current wind speed in m/s (hover to see current wind gust speed)